createdAt,value
2023-05-14T00:13:23.040Z,0
2023-05-14T00:18:39.706Z,0
2023-05-14T00:23:58.097Z,0
2023-05-14T00:29:14.422Z,0
2023-05-14T00:34:30.893Z,0
2023-05-14T00:39:47.286Z,0
2023-05-14T00:45:04.193Z,0
2023-05-14T00:50:22.125Z,0
2023-05-14T00:55:38.338Z,0
2023-05-14T01:00:54.310Z,0
2023-05-14T01:06:10.092Z,0
2023-05-14T01:11:25.723Z,0
2023-05-14T01:16:41.906Z,0
2023-05-14T01:21:59.139Z,0
2023-05-14T01:27:14.677Z,0
2023-05-14T01:32:30.447Z,0
2023-05-14T01:37:46.201Z,0
2023-05-14T01:43:02.708Z,0
2023-05-14T01:48:20.280Z,0
2023-05-14T01:53:35.922Z,0
2023-05-14T01:58:53.027Z,0
2023-05-14T02:04:09.729Z,0
2023-05-14T02:09:25.929Z,0
2023-05-14T02:14:42.064Z,0
2023-05-14T02:19:58.982Z,0
2023-05-14T02:25:16.346Z,0
2023-05-14T02:30:32.279Z,0
2023-05-14T02:35:48.028Z,0
2023-05-14T02:41:03.947Z,0
2023-05-14T02:46:19.597Z,0
2023-05-14T02:51:36.240Z,0
2023-05-14T02:56:53.162Z,0
2023-05-14T03:02:10.482Z,0
2023-05-14T03:07:26.949Z,1
2023-05-14T03:12:43.746Z,2
2023-05-14T03:17:41.820Z,4
2023-05-14T03:22:58.858Z,9
2023-05-14T03:28:15.603Z,21
2023-05-14T04:15:48.668Z,413
2023-05-14T04:20:58.322Z,477
2023-05-14T04:26:14.959Z,550
2023-05-14T04:31:31.111Z,620
2023-05-14T04:36:48.220Z,681
2023-05-14T04:42:04.588Z,737
2023-05-14T04:47:21.834Z,824
2023-05-14T04:52:39.843Z,909
2023-05-14T04:57:57.273Z,959
2023-05-14T05:03:13.367Z,929
2023-05-14T05:08:30.033Z,860
2023-05-14T05:13:46.318Z,795
2023-05-14T05:19:04.024Z,778
2023-05-14T05:24:19.965Z,770
2023-05-14T05:29:35.926Z,771
2023-05-14T05:34:51.464Z,675
2023-05-14T05:40:07.232Z,687
2023-05-14T05:45:22.948Z,827
2023-05-14T05:50:39.313Z,902
2023-05-14T05:55:55.042Z,979
2023-05-14T06:01:11.807Z,1031
2023-05-14T06:06:29.667Z,1034
2023-05-14T06:11:46.594Z,1034
2023-05-14T06:17:02.591Z,1105
2023-05-14T06:22:18.957Z,1130
2023-05-14T06:27:35.887Z,1153
2023-05-14T06:32:53.158Z,1171
2023-05-14T06:38:10.372Z,1186
2023-05-14T06:43:26.878Z,1204
2023-05-14T06:48:43.640Z,1222
2023-05-14T06:54:00.478Z,1239
2023-05-14T06:59:17.270Z,1259
2023-05-14T07:04:36.273Z,1282
2023-05-14T07:09:51.600Z,1305
2023-05-14T07:52:09.794Z,1491
2023-05-14T07:57:19.530Z,1523
2023-05-14T08:02:36.919Z,1547
2023-05-14T08:07:53.172Z,1564
2023-05-14T08:13:09.276Z,1574
2023-05-14T08:18:26.880Z,1570
2023-05-14T08:23:43.305Z,1564
2023-05-14T08:28:59.379Z,1598
2023-05-14T08:34:16.494Z,1614
2023-05-14T08:39:32.729Z,1619
2023-05-14T08:44:49.876Z,1614
2023-05-14T08:50:07.941Z,1583
2023-05-14T08:55:23.437Z,1614
2023-05-14T09:00:40.697Z,1639
2023-05-14T09:06:00.470Z,1665
2023-05-14T09:11:13.453Z,1707
2023-05-14T09:16:29.958Z,1769
2023-05-14T09:21:46.666Z,1844
2023-05-14T09:27:03.467Z,1887
2023-05-14T09:32:20.762Z,1849
2023-05-14T09:37:36.406Z,1801
2023-05-14T09:42:53.513Z,1779
2023-05-14T09:48:10.718Z,1761
2023-05-14T09:53:27.120Z,1714
2023-05-14T09:58:44.421Z,1733
2023-05-14T10:04:01.674Z,1788
2023-05-14T10:09:17.574Z,1878
2023-05-14T10:14:35.137Z,1699
2023-05-14T10:19:52.520Z,1800
2023-05-14T10:25:09.062Z,1817
2023-05-14T10:30:27.305Z,1786
2023-05-14T10:35:42.549Z,1781
2023-05-14T10:40:58.475Z,1784
2023-05-14T10:46:17.332Z,1834
2023-05-14T10:51:33.955Z,1809
2023-05-14T11:33:53.835Z,2303
2023-05-14T11:39:03.147Z,2624
2023-05-14T11:44:19.424Z,2601
2023-05-14T11:49:36.181Z,2851
2023-05-14T11:54:53.031Z,2791
2023-05-14T12:00:09.119Z,2863
2023-05-14T13:14:08.195Z,3800
2023-05-14T13:19:18.016Z,4853
2023-05-14T13:24:34.885Z,4760
2023-05-14T14:02:06.770Z,3802
2023-05-14T14:07:22.423Z,5238
2023-05-14T14:12:39.231Z,5679
2023-05-14T14:17:56.230Z,5333
2023-05-14T14:23:12.210Z,5461
2023-05-14T14:28:21.927Z,6541
2023-05-14T14:33:39.217Z,7117
2023-05-14T14:38:54.642Z,5184
2023-05-14T14:44:11.686Z,4693
2023-05-14T14:49:29.538Z,7174
2023-05-14T14:54:46.596Z,4625
2023-05-14T15:00:03.041Z,4328
2023-05-14T15:05:17.362Z,4503
2023-05-14T15:10:34.105Z,6325
2023-05-14T15:15:51.390Z,5842
2023-05-14T15:21:06.654Z,5974
2023-05-14T15:26:22.865Z,6285
2023-05-14T15:31:38.956Z,5614
2023-05-14T15:36:55.113Z,4767
2023-05-14T15:42:12.004Z,3375
2023-05-14T15:47:28.637Z,3061
2023-05-14T15:52:45.393Z,3300
2023-05-14T15:58:01.147Z,3481
2023-05-14T16:13:51.514Z,4589
2023-05-14T16:19:07.928Z,4346
2023-05-14T16:24:24.213Z,4968
2023-05-14T16:29:41.458Z,4834
2023-05-14T16:34:56.782Z,5354
2023-05-14T16:40:12.996Z,6104
2023-05-14T16:45:30.794Z,6024
2023-05-14T16:50:46.548Z,6025
2023-05-14T16:56:04.432Z,5414
2023-05-14T17:01:20.965Z,4920
2023-05-14T17:06:37.811Z,4660
2023-05-14T17:11:54.532Z,3886
2023-05-14T18:15:17.324Z,313
2023-05-14T18:20:35.824Z,257
2023-05-14T18:25:50.294Z,245
2023-05-14T18:31:06.599Z,189
2023-05-14T18:36:21.334Z,141
2023-05-14T18:41:37.502Z,111
2023-05-14T18:46:53.638Z,83
2023-05-14T18:52:09.811Z,64
2023-05-14T18:57:25.310Z,51
2023-05-14T19:02:41.854Z,33
2023-05-14T19:07:56.356Z,21
2023-05-14T19:13:13.155Z,15
2023-05-14T19:18:28.960Z,10
2023-05-14T19:23:46.123Z,8
2023-05-14T19:29:02.300Z,3
2023-05-14T19:34:19.877Z,1
2023-05-14T19:44:47.421Z,0
2023-05-14T19:50:03.932Z,0
2023-05-14T19:55:21.961Z,0
2023-05-14T20:00:38.468Z,0
2023-05-14T20:05:56.024Z,0
2023-05-14T20:11:13.369Z,0
2023-05-14T20:16:29.977Z,0
2023-05-14T20:21:46.984Z,0
2023-05-14T20:27:03.794Z,0
2023-05-14T20:32:43.260Z,0
2023-05-14T20:38:16.339Z,0
2023-05-14T20:43:32.763Z,0
2023-05-14T20:48:49.561Z,0
2023-05-14T20:54:04.968Z,0
2023-05-14T20:59:22.426Z,0
2023-05-14T21:04:39.687Z,0
2023-05-14T21:09:56.007Z,0
2023-05-14T21:15:13.482Z,0
2023-05-14T21:20:29.049Z,0
2023-05-14T21:25:46.406Z,0
2023-05-14T21:31:03.270Z,0
2023-05-14T21:36:20.554Z,0
2023-05-14T21:41:37.442Z,0
2023-05-14T21:46:54.045Z,0
2023-05-14T21:52:11.142Z,0
2023-05-14T21:57:34.839Z,0
2023-05-14T22:02:45.813Z,0
2023-05-14T22:08:02.499Z,0
2023-05-14T22:13:18.256Z,0
2023-05-14T22:18:36.041Z,0
2023-05-14T22:23:51.958Z,0
2023-05-14T22:29:07.991Z,0
2023-05-14T22:34:26.226Z,0
2023-05-14T22:39:42.832Z,0
2023-05-14T23:27:19.904Z,0
2023-05-14T23:32:30.576Z,0
2023-05-14T23:37:47.688Z,0
2023-05-14T23:43:03.759Z,0
2023-05-14T23:48:22.001Z,0
2023-05-14T23:53:39.374Z,0
2023-05-14T23:58:57.069Z,0
